KFAY/FAY METAR and TAF weather

Enter ICAO airport designator
Station Type Date Time Source
KFAY METAR 2018/12/19 09:53 UTC NOAA

KFAY 190953Z 04003KT 9SM CLR M01/M02 A3017 RMK AO2 SLP214 T10061022


Station Type Date Time Source
KFAY Decoded METAR 2018/12/19 09:53 UTC NOAA

FAYETTEVILLE REGIONAL AIRPORT , NC, United States (KFAY) 34-59N 078-53W 55M
Dec 19, 2018 - 04:53 AM EST / 2018.12.19 0953 UTC
Wind: from the NE (040 degrees) at 3 MPH (3 KT):0
Visibility: 9 mile(s):0
Sky conditions: clear
Temperature: 30.9 F (-0.6 C)
Dew Point: 28.0 F (-2.2 C)
Relative Humidity: 88%
Pressure (altimeter): 30.17 in. Hg (1021 hPa)
ob: KFAY 190953Z 04003KT 9SM CLR M01/M02 A3017 RMK AO2 SLP214 T10061022
cycle: 10

Station Type Date Time Source
KFAY TAF 2018/12/19 06:36 UTC NOAA

TAF KFAY 190533Z 1906/2006 VRB02KT P6SM SKC
FM191600 VRB04KT P6SM BKN200
FM192200 VRB03KT P6SM OVC035
FM200200 VRB04KT P6SM OVC025


Example: see airport list